Time;durP1;ratioP1;P1;durP2;ratioP2;P2;SDS_P1;SDS_P2;PMS_P1;PMS_P2;Temp;Humidity;BMP_temperature;BMP_pressure;BME280_temperature;BME280_humidity;BME280_pressure;Samples;Min_cycle;Max_cycle;Signal;HPM_P1;HPM_P2
2023/01/05 00:01:42;;;;;;;;;;;11.70;99.90;;;;;;5052938;28;20276;-50
2023/01/05 00:04:08;;;;;;;;;;;11.70;99.90;;;;;;5052766;28;20381;-51
2023/01/05 00:06:34;;;;;;;;;;;11.80;99.90;;;;;;5052576;28;19916;-50
2023/01/05 00:09:00;;;;;;;;;;;11.70;99.90;;;;;;5052469;28;19908;-56
2023/01/05 00:22:33;;;;;;;;;;;11.70;99.90;;;;;;5052444;28;20403;-56
2023/01/05 00:25:01;;;;;;;;;;;11.70;99.90;;;;;;5052407;28;19908;-55
2023/01/05 00:27:27;;;;;;;;;;;11.70;99.90;;;;;;5052464;28;19908;-55
2023/01/05 00:29:53;;;;;;;;;;;11.60;99.90;;;;;;5050652;28;19916;-56
2023/01/05 00:32:18;;;;;;;;;;;11.60;99.90;;;;;;5052204;28;19912;-54
2023/01/05 00:34:44;;;;;;;;;;;11.70;99.90;;;;;;5052361;28;19915;-55
2023/01/05 00:37:10;;;;;;;;;;;11.60;99.90;;;;;;5052064;28;19916;-52
2023/01/05 00:39:35;;;;;;;;;;;11.60;99.90;;;;;;5050568;28;19909;-54
2023/01/05 00:42:01;;;;;;;;;;;11.60;99.90;;;;;;5052413;28;19915;-55
2023/01/05 00:44:26;;;;;;;;;;;11.60;99.90;;;;;;5050614;28;19911;-54
2023/01/05 00:46:53;;;;;;;;;;;11.50;99.90;;;;;;5051680;28;19915;-53
2023/01/05 00:49:19;;;;;;;;;;;11.50;99.90;;;;;;5049842;28;19916;-53
2023/01/05 00:51:44;;;;;;;;;;;11.50;99.90;;;;;;5051668;28;19913;-55
2023/01/05 00:54:10;;;;;;;;;;;11.60;99.90;;;;;;5051923;28;19909;-54
2023/01/05 00:56:35;;;;;;;;;;;11.50;99.90;;;;;;5050123;28;19924;-54
2023/01/05 00:59:01;;;;;;;;;;;11.50;99.90;;;;;;5051490;28;19919;-52
2023/01/05 01:01:27;;;;;;;;;;;11.40;99.90;;;;;;5050521;28;20351;-53
2023/01/05 01:03:52;;;;;;;;;;;11.40;99.90;;;;;;5050287;28;19934;-50
2023/01/05 01:06:18;;;;;;;;;;;11.40;99.90;;;;;;5051553;28;19912;-51
2023/01/05 01:08:44;;;;;;;;;;;11.40;99.90;;;;;;5051281;28;19951;-56
2023/01/05 01:11:09;;;;;;;;;;;11.40;99.90;;;;;;5051382;28;20311;-50
2023/01/05 01:13:37;;;;;;;;;;;11.40;99.90;;;;;;5051531;28;19908;-54
2023/01/05 01:16:07;;;;;;;;;;;11.50;99.90;;;;;;5050100;28;20365;-52
2023/01/05 01:18:32;;;;;;;;;;;11.40;99.90;;;;;;5050979;28;19915;-55
2023/01/05 01:20:58;;;;;;;;;;;11.40;99.90;;;;;;5051275;28;20394;-51
2023/01/05 01:23:24;;;;;;;;;;;11.40;99.90;;;;;;5051445;28;19912;-56
2023/01/05 01:25:49;;;;;;;;;;;11.40;99.90;;;;;;5049968;28;19908;-54
2023/01/05 01:28:15;;;;;;;;;;;11.40;99.90;;;;;;5050888;28;20051;-52
2023/01/05 01:30:41;;;;;;;;;;;11.40;99.90;;;;;;5050930;28;19916;-55
2023/01/05 01:33:06;;;;;;;;;;;11.40;99.90;;;;;;5051374;28;19915;-54
2023/01/05 01:35:32;;;;;;;;;;;11.30;99.90;;;;;;5049955;28;19990;-53
2023/01/05 01:37:58;;;;;;;;;;;11.30;99.90;;;;;;5049484;28;20002;-55
2023/01/05 01:40:23;;;;;;;;;;;11.30;99.90;;;;;;5050896;28;20175;-55
2023/01/05 01:42:49;;;;;;;;;;;11.30;99.90;;;;;;5049623;28;19954;-54
2023/01/05 01:45:20;;;;;;;;;;;11.30;99.90;;;;;;5051062;28;19939;-54
2023/01/05 01:47:48;;;;;;;;;;;11.30;99.90;;;;;;5049408;28;19932;-54
2023/01/05 01:50:16;;;;;;;;;;;11.30;99.90;;;;;;5049459;28;19916;-54
2023/01/05 01:52:44;;;;;;;;;;;11.30;99.90;;;;;;5050947;28;20400;-55
2023/01/05 01:55:10;;;;;;;;;;;11.30;99.90;;;;;;5049538;28;20019;-56
2023/01/05 01:57:37;;;;;;;;;;;11.30;99.90;;;;;;5049132;28;20207;-52
2023/01/05 02:00:05;;;;;;;;;;;11.30;99.90;;;;;;5048441;28;19915;-54
2023/01/05 02:02:31;;;;;;;;;;;11.30;99.90;;;;;;5050947;28;19908;-55
2023/01/05 02:05:01;;;;;;;;;;;11.30;99.90;;;;;;5050839;28;20544;-54
2023/01/05 02:07:28;;;;;;;;;;;11.30;99.90;;;;;;5049326;28;19915;-51
2023/01/05 02:09:54;;;;;;;;;;;11.30;99.90;;;;;;5049048;28;20004;-49
2023/01/05 02:12:25;;;;;;;;;;;11.30;99.90;;;;;;5049315;28;20007;-53
2023/01/05 02:14:57;;;;;;;;;;;11.30;99.90;;;;;;5049354;28;19909;-49
2023/01/05 02:17:26;;;;;;;;;;;11.30;99.90;;;;;;5049169;28;20391;-53
2023/01/05 02:20:05;;;;;;;;;;;11.20;99.90;;;;;;5049061;28;19912;-54
2023/01/05 02:22:48;;;;;;;;;;;11.20;99.90;;;;;;5050538;28;19916;-51
2023/01/05 02:25:21;;;;;;;;;;;11.20;99.90;;;;;;5049372;28;20138;-53
2023/01/05 02:27:46;;;;;;;;;;;11.20;99.90;;;;;;5048925;28;20377;-53
2023/01/05 02:30:32;;;;;;;;;;;11.20;99.90;;;;;;5049086;28;19959;-53
2023/01/05 02:33:13;;;;;;;;;;;11.20;99.90;;;;;;5049200;28;19912;-53
2023/01/05 02:36:08;;;;;;;;;;;11.10;99.90;;;;;;5049189;28;19909;-55
2023/01/05 02:38:42;;;;;;;;;;;11.10;99.90;;;;;;5048745;28;19908;-52
2023/01/05 02:41:27;;;;;;;;;;;11.10;99.90;;;;;;5050355;28;19913;-55
2023/01/05 02:43:54;;;;;;;;;;;11.00;99.90;;;;;;5050679;28;19915;-52
2023/01/05 02:46:20;;;;;;;;;;;11.10;99.90;;;;;;5048952;28;20018;-55
2023/01/05 02:48:47;;;;;;;;;;;11.10;99.90;;;;;;5048834;28;19915;-50
2023/01/05 02:51:17;;;;;;;;;;;11.00;99.90;;;;;;5048968;28;20251;-51
2023/01/05 02:53:46;;;;;;;;;;;11.00;99.90;;;;;;5048930;28;20383;-51
2023/01/05 02:56:14;;;;;;;;;;;11.10;99.90;;;;;;5050440;28;19916;-50
2023/01/05 02:58:47;;;;;;;;;;;11.00;99.90;;;;;;5048565;28;19913;-51
2023/01/05 03:01:16;;;;;;;;;;;10.90;99.90;;;;;;5048918;28;20288;-50
2023/01/05 03:03:48;;;;;;;;;;;11.00;99.90;;;;;;5048957;28;20016;-49
2023/01/05 03:06:16;;;;;;;;;;;11.00;99.90;;;;;;5048910;28;20361;-51
2023/01/05 03:08:50;;;;;;;;;;;11.00;99.90;;;;;;5048795;28;19916;-52
2023/01/05 03:14:19;;;;;;;;;;;10.90;99.90;;;;;;5052635;28;20523;-54
2023/01/05 03:16:46;;;;;;;;;;;10.80;99.90;;;;;;5052228;28;19959;-55
2023/01/05 03:36:02;;;;;;;;;;;10.80;99.90;;;;;;5053593;28;20274;-55
2023/01/05 03:38:30;;;;;;;;;;;10.80;99.90;;;;;;5051924;28;19913;-54
2023/01/05 03:40:59;;;;;;;;;;;10.90;99.90;;;;;;5051966;28;19954;-54
2023/01/05 03:43:25;;;;;;;;;;;10.90;99.90;;;;;;5051968;28;20265;-53
2023/01/05 03:45:55;;;;;;;;;;;10.80;99.90;;;;;;5053265;28;19951;-55
2023/01/05 03:48:25;;;;;;;;;;;10.80;99.90;;;;;;5051681;28;19908;-53
2023/01/05 03:50:50;;;;;;;;;;;10.80;99.90;;;;;;5051587;28;19909;-55
2023/01/05 03:53:18;;;;;;;;;;;10.80;99.90;;;;;;5051862;28;19912;-55
2023/01/05 03:55:44;;;;;;;;;;;10.80;99.90;;;;;;5051920;28;19908;-55
2023/01/05 03:58:11;;;;;;;;;;;10.80;99.90;;;;;;5051431;28;19916;-54
2023/01/05 04:00:41;;;;;;;;;;;10.80;99.90;;;;;;5051431;28;19915;-55
2023/01/05 04:03:10;;;;;;;;;;;10.80;99.90;;;;;;5051534;28;19948;-52
2023/01/05 04:05:36;;;;;;;;;;;10.90;99.90;;;;;;5052903;28;20319;-54
2023/01/05 04:08:03;;;;;;;;;;;10.90;99.90;;;;;;5051333;28;19908;-56
2023/01/05 04:10:29;;;;;;;;;;;10.90;99.90;;;;;;5051276;28;20254;-54
2023/01/05 04:12:57;;;;;;;;;;;10.80;99.90;;;;;;5051375;28;20054;-54
2023/01/05 04:15:24;;;;;;;;;;;10.80;99.90;;;;;;5051408;28;20300;-55
2023/01/05 04:17:51;;;;;;;;;;;10.70;99.90;;;;;;5051050;28;19915;-54
2023/01/05 04:20:17;;;;;;;;;;;10.70;99.90;;;;;;5051061;28;20008;-53
2023/01/05 04:22:43;;;;;;;;;;;10.70;99.90;;;;;;5050787;28;19915;-56
2023/01/05 04:25:09;;;;;;;;;;;10.70;99.90;;;;;;5050713;28;19995;-53
2023/01/05 04:27:35;;;;;;;;;;;10.80;99.90;;;;;;5051103;28;19909;-53
2023/01/05 04:30:03;;;;;;;;;;;10.70;99.90;;;;;;5051119;28;19916;-54
2023/01/05 04:32:29;;;;;;;;;;;10.60;99.90;;;;;;5051221;28;20281;-54
2023/01/05 04:34:55;;;;;;;;;;;10.60;99.90;;;;;;5050963;28;20011;-56
2023/01/05 04:37:21;;;;;;;;;;;10.60;99.90;;;;;;5050709;28;19908;-54
2023/01/05 04:39:47;;;;;;;;;;;10.60;99.90;;;;;;5050732;28;20343;-55
2023/01/05 04:42:13;;;;;;;;;;;10.60;99.90;;;;;;5050797;28;19905;-55
2023/01/05 04:44:41;;;;;;;;;;;10.60;99.90;;;;;;5051218;28;19999;-54
2023/01/05 04:47:07;;;;;;;;;;;10.60;99.90;;;;;;5051840;28;20338;-54
2023/01/05 04:49:36;;;;;;;;;;;10.60;99.90;;;;;;5051819;28;19908;-55
2023/01/05 04:52:04;;;;;;;;;;;10.60;99.90;;;;;;5050646;28;19939;-51
2023/01/05 04:54:31;;;;;;;;;;;10.60;99.90;;;;;;5050791;28;19908;-54
2023/01/05 04:56:57;;;;;;;;;;;10.50;99.90;;;;;;5051521;28;19931;-54
2023/01/05 04:59:22;;;;;;;;;;;10.50;99.90;;;;;;5050436;28;19908;-51
2023/01/05 05:01:50;;;;;;;;;;;10.50;99.90;;;;;;5051653;28;19909;-50
2023/01/05 05:04:16;;;;;;;;;;;10.50;99.90;;;;;;5050433;28;19920;-50
2023/01/05 05:06:43;;;;;;;;;;;10.50;99.90;;;;;;5050214;28;20254;-52
2023/01/05 05:09:11;;;;;;;;;;;10.40;99.90;;;;;;5051384;28;19951;-52
2023/01/05 05:11:37;;;;;;;;;;;10.50;99.90;;;;;;5050414;28;19939;-50
2023/01/05 05:14:03;;;;;;;;;;;10.40;99.90;;;;;;5051581;28;19909;-54
2023/01/05 05:16:29;;;;;;;;;;;10.30;99.90;;;;;;5049979;28;20356;-51
2023/01/05 05:18:54;;;;;;;;;;;10.30;99.90;;;;;;5050007;28;20009;-53
2023/01/05 05:21:24;;;;;;;;;;;10.30;99.90;;;;;;5050132;28;20288;-53
2023/01/05 05:23:49;;;;;;;;;;;10.30;99.90;;;;;;5050129;28;20007;-55
2023/01/05 05:26:15;;;;;;;;;;;10.30;99.90;;;;;;5050007;28;19915;-54
2023/01/05 05:28:43;;;;;;;;;;;10.30;99.90;;;;;;5049968;28;19920;-50
2023/01/05 05:31:09;;;;;;;;;;;10.20;99.90;;;;;;5051279;28;20586;-53
2023/01/05 05:33:36;;;;;;;;;;;10.20;99.90;;;;;;5051405;28;19911;-53
2023/01/05 05:36:02;;;;;;;;;;;10.30;99.90;;;;;;5050988;28;19932;-53
2023/01/05 05:38:28;;;;;;;;;;;10.20;99.90;;;;;;5050828;28;20331;-53
2023/01/05 05:40:54;;;;;;;;;;;10.20;99.90;;;;;;5050988;28;19909;-54
2023/01/05 05:43:19;;;;;;;;;;;10.20;99.90;;;;;;5051087;28;19919;-55
2023/01/05 05:45:45;;;;;;;;;;;10.10;99.90;;;;;;5051094;28;19909;-52
2023/01/05 05:48:10;;;;;;;;;;;10.10;99.90;;;;;;5050673;28;19952;-56
2023/01/05 05:50:36;;;;;;;;;;;10.10;99.90;;;;;;5050846;28;19909;-55
2023/01/05 05:53:04;;;;;;;;;;;10.10;99.90;;;;;;5050874;28;20288;-53
2023/01/05 05:55:30;;;;;;;;;;;10.10;99.90;;;;;;5050959;28;19909;-56
2023/01/05 05:57:55;;;;;;;;;;;10.10;99.90;;;;;;5050727;28;19920;-57
2023/01/05 06:00:21;;;;;;;;;;;10.10;99.90;;;;;;5050676;28;20349;-54
2023/01/05 06:02:47;;;;;;;;;;;10.10;99.90;;;;;;5050884;28;19909;-53
2023/01/05 06:05:12;;;;;;;;;;;10.00;99.90;;;;;;5050934;28;19932;-53
2023/01/05 06:07:38;;;;;;;;;;;10.00;99.90;;;;;;5050616;28;19935;-54
2023/01/05 06:10:04;;;;;;;;;;;10.00;99.90;;;;;;5050723;28;20023;-55
2023/01/05 06:12:29;;;;;;;;;;;10.00;99.90;;;;;;5050741;28;20360;-56
2023/01/05 06:14:55;;;;;;;;;;;10.00;99.90;;;;;;5050770;28;19955;-53
2023/01/05 06:17:21;;;;;;;;;;;10.00;99.90;;;;;;5050540;28;19908;-53
2023/01/05 06:19:46;;;;;;;;;;;9.90;99.90;;;;;;5050575;28;20277;-51
2023/01/05 06:22:12;;;;;;;;;;;10.00;99.90;;;;;;5051212;28;20341;-51
2023/01/05 06:24:38;;;;;;;;;;;10.00;99.90;;;;;;5050991;28;19909;-55
2023/01/05 06:27:03;;;;;;;;;;;9.90;99.90;;;;;;5050629;28;20362;-53
2023/01/05 06:29:29;;;;;;;;;;;9.90;99.90;;;;;;5050513;28;20329;-51
2023/01/05 06:31:54;;;;;;;;;;;9.80;99.90;;;;;;5050503;28;19916;-53
2023/01/05 06:34:20;;;;;;;;;;;9.80;99.90;;;;;;5050625;28;19999;-54
2023/01/05 06:36:45;;;;;;;;;;;9.80;99.90;;;;;;5050343;28;19909;-53
2023/01/05 06:39:11;;;;;;;;;;;9.80;99.90;;;;;;5050373;28;19956;-52
2023/01/05 06:41:37;;;;;;;;;;;9.80;99.90;;;;;;5050581;28;19908;-54
2023/01/05 06:44:04;;;;;;;;;;;9.80;99.90;;;;;;5050570;28;19916;-53
2023/01/05 06:46:30;;;;;;;;;;;9.80;99.90;;;;;;5050945;28;20269;-54
2023/01/05 06:48:56;;;;;;;;;;;9.80;99.90;;;;;;5054221;28;19915;-56
2023/01/05 06:51:21;;;;;;;;;;;9.80;99.90;;;;;;5054186;28;19958;-56
2023/01/05 06:53:47;;;;;;;;;;;9.80;99.90;;;;;;5054286;28;19909;-53
2023/01/05 06:56:12;;;;;;;;;;;9.80;99.90;;;;;;5054127;28;19909;-55
2023/01/05 06:58:38;;;;;;;;;;;9.80;99.90;;;;;;5053672;28;20331;-55
2023/01/05 07:01:04;;;;;;;;;;;9.70;99.90;;;;;;5054065;28;19950;-55
2023/01/05 07:03:29;;;;;;;;;;;9.70;99.90;;;;;;5054295;28;20379;-56
2023/01/05 07:05:55;;;;;;;;;;;9.70;99.90;;;;;;5053962;28;19909;-55
2023/01/05 07:08:20;;;;;;;;;;;9.60;99.90;;;;;;5053749;28;19919;-56
2023/01/05 07:10:46;;;;;;;;;;;9.70;99.90;;;;;;5053851;28;19962;-51
2023/01/05 07:13:12;;;;;;;;;;;9.60;99.90;;;;;;5053859;28;20360;-55
2023/01/05 07:15:37;;;;;;;;;;;9.60;99.90;;;;;;5053905;28;19913;-55
2023/01/05 07:18:03;;;;;;;;;;;9.70;99.90;;;;;;5053491;28;19916;-53
2023/01/05 07:20:28;;;;;;;;;;;9.70;99.90;;;;;;5053407;28;19991;-56
2023/01/05 07:22:54;;;;;;;;;;;9.70;99.90;;;;;;5053784;28;20305;-55
2023/01/05 07:25:19;;;;;;;;;;;9.70;99.90;;;;;;5053593;28;19908;-54
2023/01/05 07:27:51;;;;;;;;;;;9.70;99.90;;;;;;5053373;28;20369;-56
2023/01/05 07:30:17;;;;;;;;;;;9.70;99.90;;;;;;5053280;28;19962;-54
2023/01/05 07:32:43;;;;;;;;;;;9.70;99.90;;;;;;5053461;28;19912;-53
2023/01/05 07:35:08;;;;;;;;;;;9.70;99.90;;;;;;5053455;28;19919;-55
2023/01/05 07:37:34;;;;;;;;;;;9.80;99.90;;;;;;5053163;28;20038;-53
2023/01/05 07:39:59;;;;;;;;;;;9.80;99.90;;;;;;5053158;28;19954;-52
2023/01/05 07:42:25;;;;;;;;;;;9.80;99.90;;;;;;5053314;28;19912;-55
2023/01/05 07:44:51;;;;;;;;;;;9.80;99.90;;;;;;5053470;28;20270;-55
2023/01/05 07:47:17;;;;;;;;;;;9.80;99.90;;;;;;5052991;28;20424;-56
2023/01/05 07:49:42;;;;;;;;;;;9.80;99.90;;;;;;5052865;28;19909;-54
2023/01/05 07:52:08;;;;;;;;;;;9.70;99.90;;;;;;5053066;28;19919;-56
2023/01/05 07:54:34;;;;;;;;;;;9.70;99.90;;;;;;5053210;28;19909;-56
2023/01/05 07:56:59;;;;;;;;;;;9.70;99.90;;;;;;5052820;28;19919;-53
2023/01/05 07:59:25;;;;;;;;;;;9.70;99.90;;;;;;5052757;28;19909;-56
2023/01/05 08:01:50;;;;;;;;;;;9.70;99.90;;;;;;5052962;28;19920;-56
2023/01/05 08:04:16;;;;;;;;;;;9.80;99.90;;;;;;5052867;28;19914;-53
2023/01/05 08:06:42;;;;;;;;;;;9.80;99.90;;;;;;5052619;28;19908;-53
2023/01/05 08:11:52;;;;;;;;;;;9.80;99.90;;;;;;5053185;28;19965;-53
2023/01/05 08:14:17;;;;;;;;;;;9.80;99.90;;;;;;5052801;28;20004;-52
2023/01/05 08:16:43;;;;;;;;;;;9.80;99.90;;;;;;5052422;28;19908;-53
2023/01/05 08:19:09;;;;;;;;;;;9.80;99.90;;;;;;5052523;28;19909;-54
2023/01/05 08:21:34;;;;;;;;;;;9.80;99.90;;;;;;5052611;28;19908;-56
2023/01/05 08:24:00;;;;;;;;;;;9.80;99.90;;;;;;5052631;28;19962;-54
2023/01/05 08:26:26;;;;;;;;;;;9.90;99.90;;;;;;5052157;28;19908;-54
2023/01/05 08:28:51;;;;;;;;;;;9.80;99.90;;;;;;5052351;28;19909;-54
2023/01/05 08:31:17;;;;;;;;;;;9.90;99.90;;;;;;5052117;28;19921;-55
2023/01/05 08:33:43;;;;;;;;;;;9.90;99.90;;;;;;5052531;28;19916;-54
2023/01/05 08:36:10;;;;;;;;;;;9.90;99.90;;;;;;5052481;28;19912;-51
2023/01/05 08:38:36;;;;;;;;;;;9.90;99.90;;;;;;5052012;28;19916;-52
2023/01/05 08:41:01;;;;;;;;;;;10.00;99.90;;;;;;5052240;28;19915;-55
2023/01/05 08:43:27;;;;;;;;;;;10.00;99.90;;;;;;5052194;28;20369;-54
2023/01/05 08:45:52;;;;;;;;;;;10.00;99.90;;;;;;5052171;28;19908;-55
2023/01/05 08:48:18;;;;;;;;;;;10.00;99.90;;;;;;5052041;28;19948;-56
2023/01/05 08:50:44;;;;;;;;;;;10.00;99.90;;;;;;5051980;28;19908;-54
2023/01/05 08:53:09;;;;;;;;;;;10.00;99.90;;;;;;5052050;28;19919;-55
2023/01/05 08:55:35;;;;;;;;;;;10.10;99.90;;;;;;5052423;28;19916;-55
2023/01/05 08:58:01;;;;;;;;;;;10.10;99.90;;;;;;5062895;22;19921;-54
2023/01/05 09:00:26;;;;;;;;;;;10.10;99.90;;;;;;5051473;28;19908;-51
2023/01/05 09:02:52;;;;;;;;;;;10.10;99.90;;;;;;5051934;28;19908;-52
2023/01/05 09:05:17;;;;;;;;;;;10.20;99.90;;;;;;5051898;28;19905;-51
2023/01/05 09:07:43;;;;;;;;;;;10.20;99.90;;;;;;5052012;28;19908;-53
2023/01/05 09:10:09;;;;;;;;;;;10.20;99.90;;;;;;5050933;28;19974;-51
2023/01/05 09:12:35;;;;;;;;;;;10.20;99.90;;;;;;5051818;28;19943;-52
2023/01/05 09:15:01;;;;;;;;;;;10.20;99.90;;;;;;5051706;28;19909;-47
2023/01/05 09:17:27;;;;;;;;;;;10.30;99.90;;;;;;5051343;28;19909;-52
2023/01/05 09:19:52;;;;;;;;;;;10.30;99.90;;;;;;5051871;28;19915;-52
2023/01/05 09:22:18;;;;;;;;;;;10.30;99.90;;;;;;5051606;28;19991;-51
2023/01/05 09:24:44;;;;;;;;;;;10.30;99.90;;;;;;5051364;28;19931;-51
2023/01/05 09:27:09;;;;;;;;;;;10.20;99.90;;;;;;5051172;28;20036;-51
2023/01/05 09:29:35;;;;;;;;;;;10.30;99.90;;;;;;5051203;28;19927;-52
2023/01/05 09:32:01;;;;;;;;;;;10.30;99.90;;;;;;5051427;28;20392;-53
2023/01/05 09:34:26;;;;;;;;;;;10.30;99.90;;;;;;5051282;28;20251;-50
2023/01/05 09:36:52;;;;;;;;;;;10.30;99.90;;;;;;5049921;28;19963;-53
2023/01/05 09:39:17;;;;;;;;;;;10.40;99.90;;;;;;5050862;28;19944;-52
2023/01/05 09:41:45;;;;;;;;;;;10.40;99.90;;;;;;5051140;28;20376;-51
2023/01/05 09:44:10;;;;;;;;;;;10.40;99.90;;;;;;5051167;28;20274;-52
2023/01/05 09:46:38;;;;;;;;;;;10.40;99.90;;;;;;5051029;28;20121;-47
2023/01/05 09:49:05;;;;;;;;;;;10.40;99.90;;;;;;5050927;28;19909;-49
2023/01/05 09:51:31;;;;;;;;;;;10.50;99.90;;;;;;5051000;28;20384;-51
2023/01/05 09:53:58;;;;;;;;;;;10.50;99.90;;;;;;5050914;28;20055;-54
2023/01/05 09:56:23;;;;;;;;;;;10.50;99.90;;;;;;5050984;28;20289;-50
2023/01/05 09:58:50;;;;;;;;;;;10.40;99.90;;;;;;5050686;28;19923;-48
2023/01/05 10:01:17;;;;;;;;;;;10.40;99.90;;;;;;5050925;28;19909;-52
2023/01/05 10:03:46;;;;;;;;;;;10.30;99.90;;;;;;5050956;28;19962;-51
2023/01/05 10:06:12;;;;;;;;;;;10.30;99.90;;;;;;5051434;28;19908;-50
2023/01/05 10:08:39;;;;;;;;;;;10.40;99.90;;;;;;5050358;28;19913;-50
2023/01/05 10:14:11;;;;;;;;;;;10.40;99.90;;;;;;5049497;28;20379;-51
2023/01/05 10:16:38;;;;;;;;;;;10.50;99.90;;;;;;5050623;28;19916;-54
2023/01/05 10:19:05;;;;;;;;;;;10.60;99.90;;;;;;5050570;28;19912;-49
2023/01/05 10:21:46;;;;;;;;;;;10.60;99.90;;;;;;5051388;28;19909;-50
2023/01/05 10:24:12;;;;;;;;;;;10.60;99.90;;;;;;5054830;28;19919;-50
2023/01/05 10:26:37;;;;;;;;;;;10.60;99.90;;;;;;5054640;28;19908;-51
2023/01/05 10:29:10;;;;;;;;;;;10.50;99.90;;;;;;5054478;28;19909;-51
2023/01/05 10:31:58;;;;;;;;;;;10.60;99.90;;;;;;5054658;28;19928;-49
2023/01/05 10:34:30;;;;;;;;;;;10.50;99.90;;;;;;5054701;28;20289;-52
2023/01/05 10:37:04;;;;;;;;;;;10.60;99.90;;;;;;5054504;28;19918;-48
2023/01/05 10:39:39;;;;;;;;;;;10.70;99.90;;;;;;5054275;28;20011;-50
2023/01/05 10:42:10;;;;;;;;;;;10.90;99.90;;;;;;5054746;28;19908;-52
2023/01/05 10:44:51;;;;;;;;;;;11.00;99.90;;;;;;5054668;28;19908;-52
2023/01/05 10:47:17;;;;;;;;;;;11.10;99.90;;;;;;5054486;28;19909;-54
2023/01/05 10:49:44;;;;;;;;;;;11.20;99.90;;;;;;5054205;28;20398;-53
2023/01/05 10:52:15;;;;;;;;;;;11.30;99.90;;;;;;5054201;28;19917;-53
2023/01/05 10:54:46;;;;;;;;;;;11.30;99.90;;;;;;5054460;28;19915;-53
2023/01/05 10:57:30;;;;;;;;;;;11.40;99.90;;;;;;5053953;28;20017;-52
2023/01/05 10:59:58;;;;;;;;;;;11.50;99.90;;;;;;5054160;28;19912;-53
2023/01/05 11:02:25;;;;;;;;;;;11.50;99.90;;;;;;5054202;28;20017;-51
2023/01/05 11:04:52;;;;;;;;;;;11.60;99.90;;;;;;5054141;28;20389;-49
2023/01/05 11:07:17;;;;;;;;;;;11.60;99.90;;;;;;5053850;28;20055;-51
2023/01/05 11:09:44;;;;;;;;;;;11.60;99.90;;;;;;5053807;28;20006;-53
2023/01/05 11:12:20;;;;;;;;;;;11.60;99.90;;;;;;5052597;28;20009;-52
2023/01/05 11:14:53;;;;;;;;;;;11.50;99.90;;;;;;5053964;28;19988;-53
2023/01/05 11:17:20;;;;;;;;;;;11.40;99.90;;;;;;5053742;28;19908;-50
2023/01/05 11:19:48;;;;;;;;;;;11.40;99.90;;;;;;5053585;28;19912;-53
2023/01/05 11:22:32;;;;;;;;;;;11.40;99.90;;;;;;5053839;28;19905;-49
2023/01/05 11:25:16;;;;;;;;;;;11.40;99.90;;;;;;5053832;28;20428;-50
2023/01/05 11:27:42;;;;;;;;;;;11.60;99.90;;;;;;5053322;28;20003;-51
2023/01/05 11:30:13;;;;;;;;;;;11.60;99.90;;;;;;5053399;28;20000;-51
2023/01/05 11:32:40;;;;;;;;;;;11.60;99.90;;;;;;5053158;28;20373;-49
2023/01/05 11:35:16;;;;;;;;;;;11.50;99.90;;;;;;5053689;28;19908;-54
2023/01/05 11:37:43;;;;;;;;;;;11.60;99.90;;;;;;5051977;28;19909;-50
2023/01/05 11:40:14;;;;;;;;;;;11.60;99.90;;;;;;5053174;28;19970;-50
2023/01/05 11:42:42;;;;;;;;;;;11.60;99.90;;;;;;5053496;28;20486;-50
2023/01/05 11:45:10;;;;;;;;;;;11.60;99.90;;;;;;5053435;28;20369;-54
2023/01/05 11:47:37;;;;;;;;;;;11.60;99.90;;;;;;5053136;28;19909;-53
2023/01/05 11:50:06;;;;;;;;;;;11.70;99.90;;;;;;5053110;28;19986;-50
2023/01/05 11:52:33;;;;;;;;;;;11.70;99.90;;;;;;5052994;28;19916;-52
2023/01/05 11:55:15;;;;;;;;;;;11.80;99.90;;;;;;5053189;28;19991;-52
2023/01/05 11:57:40;;;;;;;;;;;12.00;99.90;;;;;;5052821;28;19908;-52
2023/01/05 12:00:21;;;;;;;;;;;12.00;99.90;;;;;;5052989;28;19909;-52
2023/01/05 12:03:02;;;;;;;;;;;12.20;99.90;;;;;;5053114;28;19951;-53
2023/01/05 12:05:45;;;;;;;;;;;12.40;99.90;;;;;;5053238;28;19909;-53
2023/01/05 12:08:15;;;;;;;;;;;12.50;99.90;;;;;;5052721;28;19908;-50
2023/01/05 12:10:46;;;;;;;;;;;12.90;99.90;;;;;;5052511;28;19913;-52
2023/01/05 12:13:12;;;;;;;;;;;13.20;99.90;;;;;;5052800;28;19919;-50
2023/01/05 12:15:56;;;;;;;;;;;13.50;99.90;;;;;;5053323;28;19999;-52
2023/01/05 12:18:40;;;;;;;;;;;13.50;99.90;;;;;;5052849;28;20227;-54
2023/01/05 12:21:12;;;;;;;;;;;13.60;99.90;;;;;;5052699;28;19909;-53
2023/01/05 12:23:38;;;;;;;;;;;13.50;99.90;;;;;;5052785;28;19909;-52
2023/01/05 12:26:22;;;;;;;;;;;13.40;99.90;;;;;;5052668;28;19909;-53
2023/01/05 12:29:11;;;;;;;;;;;13.40;99.90;;;;;;5052317;28;19909;-51
2023/01/05 12:31:50;;;;;;;;;;;13.40;99.90;;;;;;5051217;28;19913;-55
2023/01/05 12:34:18;;;;;;;;;;;13.50;99.90;;;;;;5052565;28;19916;-53
2023/01/05 12:36:57;;;;;;;;;;;13.40;99.90;;;;;;5052428;28;19951;-53
2023/01/05 12:39:37;;;;;;;;;;;13.30;99.90;;;;;;5052231;28;19915;-52
2023/01/05 12:42:38;;;;;;;;;;;13.20;99.90;;;;;;5052565;28;19909;-54
2023/01/05 12:45:22;;;;;;;;;;;13.10;99.90;;;;;;4970571;28;19980;-51
2023/01/05 12:47:54;;;;;;;;;;;12.90;99.90;;;;;;5045327;28;19909;-54
2023/01/05 12:50:38;;;;;;;;;;;12.80;99.90;;;;;;5052016;28;19919;-49
2023/01/05 12:53:09;;;;;;;;;;;12.90;99.90;;;;;;5052127;28;19981;-52
2023/01/05 12:55:40;;;;;;;;;;;13.10;99.90;;;;;;5052473;28;19954;-51
2023/01/05 12:58:12;;;;;;;;;;;13.50;99.90;;;;;;5052025;28;20285;-52
2023/01/05 13:00:44;;;;;;;;;;;14.10;99.90;;;;;;5052065;28;19962;-54
2023/01/05 13:03:15;;;;;;;;;;;14.70;99.90;;;;;;5052330;28;20336;-53
2023/01/05 13:05:56;;;;;;;;;;;15.30;99.90;;;;;;5052395;28;19909;-52
2023/01/05 13:08:24;;;;;;;;;;;15.60;99.90;;;;;;5051797;28;19909;-52
2023/01/05 13:10:50;;;;;;;;;;;15.60;99.90;;;;;;5051913;28;20357;-50
2023/01/05 13:13:19;;;;;;;;;;;15.10;99.90;;;;;;5052084;28;19959;-51
2023/01/05 13:16:03;;;;;;;;;;;14.70;99.90;;;;;;5052122;28;19909;-53
2023/01/05 13:18:29;;;;;;;;;;;14.60;99.90;;;;;;5051733;28;20000;-54
2023/01/05 13:20:57;;;;;;;;;;;14.70;99.90;;;;;;5051789;28;19912;-51
2023/01/05 13:23:27;;;;;;;;;;;15.10;99.90;;;;;;5052024;28;19908;-48
2023/01/05 13:26:06;;;;;;;;;;;14.90;99.90;;;;;;5051957;28;20289;-49
2023/01/05 13:28:33;;;;;;;;;;;14.50;99.90;;;;;;5051299;28;19912;-49
2023/01/05 13:31:07;;;;;;;;;;;14.20;99.90;;;;;;5051693;28;20249;-56
2023/01/05 13:33:45;;;;;;;;;;;13.80;99.90;;;;;;5051858;28;19912;-51
2023/01/05 13:36:29;;;;;;;;;;;13.40;99.90;;;;;;5051762;28;19913;-52
2023/01/05 13:39:33;;;;;;;;;;;13.10;99.90;;;;;;5049967;28;19963;-54
2023/01/05 13:41:59;;;;;;;;;;;12.90;99.90;;;;;;4970588;28;19910;-49
2023/01/05 13:44:43;;;;;;;;;;;12.70;99.90;;;;;;4970636;28;20427;-52
2023/01/05 13:47:38;;;;;;;;;;;12.60;99.90;;;;;;5018061;28;19913;-48
2023/01/05 13:50:18;;;;;;;;;;;12.70;99.90;;;;;;5050005;28;19908;-51
2023/01/05 13:52:55;;;;;;;;;;;12.60;99.90;;;;;;5051361;28;19918;-48
2023/01/05 13:55:22;;;;;;;;;;;12.50;99.90;;;;;;5051287;28;19948;-53
2023/01/05 13:57:48;;;;;;;;;;;12.40;99.90;;;;;;5051002;28;19908;-49
2023/01/05 14:00:27;;;;;;;;;;;12.40;99.90;;;;;;5051426;28;19909;-49
2023/01/05 14:03:16;;;;;;;;;;;12.50;99.90;;;;;;5051323;28;19948;-52
2023/01/05 14:05:48;;;;;;;;;;;12.50;99.90;;;;;;5040641;28;19908;-51
2023/01/05 14:08:18;;;;;;;;;;;12.40;99.90;;;;;;5051011;28;20095;-49
2023/01/05 14:11:03;;;;;;;;;;;12.30;99.90;;;;;;5051234;28;19915;-53
2023/01/05 14:13:58;;;;;;;;;;;12.10;99.90;;;;;;5051258;28;19913;-50
2023/01/05 14:16:33;;;;;;;;;;;12.10;99.90;;;;;;5033755;28;20362;-49
2023/01/05 14:19:17;;;;;;;;;;;12.10;99.90;;;;;;5051010;28;19920;-48
2023/01/05 14:21:48;;;;;;;;;;;12.10;99.90;;;;;;5051226;28;19934;-51
2023/01/05 14:24:36;;;;;;;;;;;12.00;99.90;;;;;;5051290;28;19908;-49
2023/01/05 14:27:12;;;;;;;;;;;11.90;99.90;;;;;;5050945;28;19952;-53
2023/01/05 14:29:46;;;;;;;;;;;11.80;99.90;;;;;;5051192;28;19912;-48
2023/01/05 14:32:21;;;;;;;;;;;11.80;99.90;;;;;;5051149;28;19912;-51
2023/01/05 14:34:52;;;;;;;;;;;11.80;99.90;;;;;;5051099;28;19908;-52
2023/01/05 14:37:22;;;;;;;;;;;11.80;99.90;;;;;;5050721;28;19912;-50
2023/01/05 14:39:51;;;;;;;;;;;11.70;99.90;;;;;;5050944;28;19996;-47
2023/01/05 14:42:21;;;;;;;;;;;11.70;99.90;;;;;;5051157;28;20320;-50
2023/01/05 14:44:51;;;;;;;;;;;11.60;99.90;;;;;;5051100;28;19915;-49
2023/01/05 14:47:31;;;;;;;;;;;11.70;99.90;;;;;;5050721;28;19909;-48
2023/01/05 14:50:02;;;;;;;;;;;11.70;99.90;;;;;;5051008;28;19909;-51
2023/01/05 14:52:46;;;;;;;;;;;11.70;99.90;;;;;;5051005;28;19912;-48
2023/01/05 14:55:23;;;;;;;;;;;11.60;99.90;;;;;;5050852;28;20272;-48
2023/01/05 14:57:50;;;;;;;;;;;11.60;99.90;;;;;;5062658;23;19954;-60
2023/01/05 15:00:22;;;;;;;;;;;11.70;99.90;;;;;;5048991;28;20365;-60
2023/01/05 15:02:59;;;;;;;;;;;11.60;99.90;;;;;;5050884;28;20003;-62
2023/01/05 15:05:25;;;;;;;;;;;11.60;99.90;;;;;;5050861;28;19999;-62
2023/01/05 15:08:03;;;;;;;;;;;11.60;99.90;;;;;;5051763;28;19905;-64